createdAt,value
2022-10-15T00:01:39.138Z,25.60
2022-10-15T00:04:07.818Z,25.70
2022-10-15T00:06:36.580Z,25.30
2022-10-15T00:09:05.419Z,26.80
2022-10-15T00:11:34.113Z,25.30
2022-10-15T00:14:02.745Z,25.00
2022-10-15T00:16:31.495Z,25.40
2022-10-15T00:19:00.837Z,25.30
2022-10-15T00:21:29.680Z,25.10
2022-10-15T00:23:58.621Z,25.10
2022-10-15T00:26:28.919Z,24.80
2022-10-15T00:29:00.729Z,25.80
2022-10-15T00:31:31.948Z,25.60
2022-10-15T00:34:02.280Z,25.10
2022-10-15T00:36:32.800Z,25.90
2022-10-15T00:39:03.122Z,25.30
2022-10-15T00:41:34.199Z,22.90
2022-10-15T00:44:23.668Z,24.00
2022-10-15T00:46:54.792Z,24.40
2022-10-15T00:49:28.174Z,25.20
2022-10-15T00:52:01.186Z,25.40
2022-10-15T00:54:34.241Z,25.70
2022-10-15T00:57:04.861Z,25.40
2022-10-15T00:59:37.016Z,26.40
2022-10-15T01:02:07.270Z,24.90
2022-10-15T01:04:36.940Z,27.20
2022-10-15T01:07:06.288Z,25.80
2022-10-15T01:09:36.493Z,26.20
2022-10-15T01:12:09.914Z,25.30
2022-10-15T01:14:49.855Z,26.00
2022-10-15T01:17:26.459Z,26.40
2022-10-15T01:20:25.353Z,26.70
2022-10-15T01:23:14.476Z,25.20
2022-10-15T01:25:56.162Z,24.50
2022-10-15T01:28:39.720Z,26.00
2022-10-15T01:31:19.607Z,27.30
2022-10-15T01:33:59.111Z,25.10
2022-10-15T01:36:37.409Z,25.50
2022-10-15T01:39:12.902Z,24.70
2022-10-15T01:41:45.332Z,24.70
2022-10-15T01:44:17.950Z,25.30
2022-10-15T01:46:50.932Z,24.50
2022-10-15T01:49:25.675Z,24.90
2022-10-15T01:54:27.474Z,25.70
2022-10-15T01:56:58.282Z,23.60
2022-10-15T01:59:30.363Z,26.10
2022-10-15T02:01:59.576Z,27.40
2022-10-15T02:04:29.817Z,25.60
2022-10-15T02:07:02.545Z,24.80
2022-10-15T02:09:42.622Z,25.80
2022-10-15T02:12:22.650Z,23.80
2022-10-15T02:14:59.423Z,25.20
2022-10-15T02:17:36.190Z,26.30
2022-10-15T02:20:12.526Z,26.40
2022-10-15T02:22:48.702Z,25.40
2022-10-15T02:25:22.411Z,25.40
2022-10-15T02:27:54.647Z,24.70
2022-10-15T02:30:24.418Z,25.30
2022-10-15T02:32:55.063Z,25.80
2022-10-15T02:35:25.750Z,25.40
2022-10-15T02:37:57.451Z,24.00
2022-10-15T02:40:29.809Z,25.70
2022-10-15T02:42:59.802Z,25.00
2022-10-15T02:45:28.520Z,25.30
2022-10-15T02:47:57.485Z,25.40
2022-10-15T02:50:26.360Z,23.60
2022-10-15T02:52:55.045Z,25.30
2022-10-15T02:55:23.749Z,25.40
2022-10-15T02:57:52.296Z,23.30
2022-10-15T03:00:22.458Z,24.10
2022-10-15T03:02:51.195Z,24.20
2022-10-15T03:05:20.297Z,23.40
2022-10-15T03:07:48.965Z,22.00
2022-10-15T03:10:17.850Z,23.50
2022-10-15T03:12:46.405Z,22.50
2022-10-15T03:15:15.044Z,21.30
2022-10-15T03:17:43.993Z,22.00
2022-10-15T03:20:12.870Z,22.90
2022-10-15T03:22:41.469Z,23.20
2022-10-15T03:25:18.762Z,24.10
2022-10-15T03:27:55.805Z,23.80
2022-10-15T03:30:32.287Z,22.80
2022-10-15T03:33:00.850Z,22.80
2022-10-15T03:35:29.391Z,22.30
2022-10-15T03:37:57.906Z,22.70
2022-10-15T03:40:26.833Z,23.90
2022-10-15T03:42:56.106Z,23.90
2022-10-15T03:45:25.193Z,23.40
2022-10-15T03:47:54.122Z,22.40
2022-10-15T03:50:23.624Z,23.50
2022-10-15T03:52:52.280Z,23.20
2022-10-15T03:55:21.963Z,23.30
2022-10-15T03:57:50.614Z,23.10
2022-10-15T04:00:19.585Z,23.40
2022-10-15T04:02:48.188Z,22.30
2022-10-15T04:05:16.979Z,21.70
2022-10-15T04:07:45.604Z,23.90
2022-10-15T04:10:14.949Z,22.50
2022-10-15T04:12:43.846Z,23.40
2022-10-15T04:15:12.575Z,23.50
2022-10-15T04:17:41.351Z,22.30
2022-10-15T04:20:12.285Z,23.10
2022-10-15T04:22:40.872Z,22.20
2022-10-15T04:25:10.466Z,23.50
2022-10-15T04:27:39.302Z,22.20
2022-10-15T04:30:10.020Z,22.60
2022-10-15T04:32:38.636Z,23.20
2022-10-15T04:35:08.333Z,22.00
2022-10-15T04:37:37.596Z,22.70
2022-10-15T04:40:08.648Z,21.70
2022-10-15T04:42:37.490Z,22.00
2022-10-15T04:45:08.426Z,23.40
2022-10-15T04:47:37.380Z,20.70
2022-10-15T04:50:07.249Z,22.40
2022-10-15T04:52:36.244Z,22.40
2022-10-15T04:55:06.200Z,23.10
2022-10-15T04:57:35.335Z,21.70
2022-10-15T05:00:05.676Z,22.20
2022-10-15T05:02:34.823Z,22.40
2022-10-15T05:05:03.722Z,23.10
2022-10-15T05:07:32.335Z,20.40
2022-10-15T05:10:01.033Z,21.30
2022-10-15T05:12:30.245Z,22.00
2022-10-15T05:14:59.414Z,21.20
2022-10-15T05:17:30.134Z,21.80
2022-10-15T05:19:59.023Z,21.80
2022-10-15T05:22:27.578Z,21.90
2022-10-15T05:24:56.786Z,22.70
2022-10-15T05:27:25.702Z,22.10
2022-10-15T05:29:54.581Z,24.10
2022-10-15T05:34:52.433Z,21.70
2022-10-15T05:37:21.584Z,23.00
2022-10-15T05:39:50.652Z,21.80
2022-10-15T05:42:20.054Z,22.10
2022-10-15T05:44:48.696Z,23.30
2022-10-15T05:47:17.340Z,24.40
2022-10-15T05:49:45.959Z,24.50
2022-10-15T05:52:14.508Z,22.50
2022-10-15T05:54:43.015Z,23.10
2022-10-15T05:57:11.716Z,22.10
2022-10-15T05:59:40.231Z,24.50
2022-10-15T06:02:15.604Z,22.80
2022-10-15T06:04:44.274Z,22.70
2022-10-15T06:07:12.967Z,22.30
2022-10-15T06:09:41.593Z,21.80
2022-10-15T06:12:10.353Z,22.20
2022-10-15T06:14:38.969Z,21.30
2022-10-15T06:17:07.628Z,20.30
2022-10-15T06:19:36.402Z,22.30
2022-10-15T06:22:05.179Z,23.00
2022-10-15T06:24:33.881Z,21.70
2022-10-15T06:27:02.820Z,22.20
2022-10-15T06:29:31.403Z,23.30
2022-10-15T06:32:01.645Z,22.60
2022-10-15T06:34:30.285Z,22.50
2022-10-15T06:36:58.904Z,21.00
2022-10-15T06:39:27.543Z,22.40
2022-10-15T06:41:56.906Z,21.90
2022-10-15T06:44:25.695Z,23.50
2022-10-15T06:46:54.265Z,21.10
2022-10-15T06:49:23.316Z,22.00
2022-10-15T06:51:52.153Z,20.40
2022-10-15T06:54:20.973Z,21.90
2022-10-15T06:56:49.547Z,20.80
2022-10-15T06:59:18.057Z,23.30
2022-10-15T07:01:46.620Z,21.30
2022-10-15T07:04:15.608Z,21.90
2022-10-15T07:06:44.579Z,22.40
2022-10-15T07:09:13.983Z,21.30
2022-10-15T07:11:42.888Z,21.40
2022-10-15T07:14:11.496Z,20.00
2022-10-15T07:16:40.199Z,20.80
2022-10-15T07:19:10.064Z,20.10
2022-10-15T07:21:39.172Z,19.50
2022-10-15T07:24:09.213Z,19.60
2022-10-15T07:26:38.451Z,19.30
2022-10-15T07:29:07.387Z,20.50
2022-10-15T07:31:36.852Z,18.90
2022-10-15T07:34:05.944Z,18.50
2022-10-15T07:36:34.566Z,18.90
2022-10-15T07:39:03.254Z,16.60
2022-10-15T07:41:34.358Z,19.70
2022-10-15T07:44:03.400Z,19.20
2022-10-15T07:46:32.431Z,17.30
2022-10-15T07:49:01.235Z,17.90
2022-10-15T07:51:29.839Z,17.70
2022-10-15T07:53:58.522Z,16.40
2022-10-15T07:56:27.314Z,16.70
2022-10-15T07:58:55.967Z,18.70
2022-10-15T08:01:25.074Z,17.00
2022-10-15T08:03:54.175Z,17.70
2022-10-15T08:06:23.461Z,15.90
2022-10-15T08:08:52.078Z,17.10
2022-10-15T08:11:20.629Z,17.50
2022-10-15T08:13:49.333Z,17.20
2022-10-15T08:16:19.236Z,17.50
2022-10-15T08:18:47.865Z,16.70
2022-10-15T08:21:16.530Z,17.30
2022-10-15T08:23:45.156Z,17.90
2022-10-15T08:26:13.873Z,16.80
2022-10-15T08:28:42.760Z,15.30
2022-10-15T08:31:11.584Z,15.50
2022-10-15T08:33:40.257Z,16.90
2022-10-15T08:36:10.028Z,19.10
2022-10-15T08:38:38.984Z,17.30
2022-10-15T08:41:20.117Z,16.30
2022-10-15T08:43:48.974Z,16.30
2022-10-15T08:46:22.851Z,16.90
2022-10-15T08:48:55.842Z,16.10
2022-10-15T08:51:28.924Z,17.20
2022-10-15T08:54:20.460Z,16.60
2022-10-15T08:57:09.956Z,15.60
2022-10-15T08:59:49.197Z,15.60
2022-10-15T09:02:22.961Z,17.10
2022-10-15T09:04:58.750Z,15.80
2022-10-15T09:07:35.949Z,14.90
2022-10-15T09:10:19.379Z,14.80
2022-10-15T09:12:56.130Z,16.20
2022-10-15T09:15:28.145Z,15.70
2022-10-15T09:17:57.394Z,15.50
2022-10-15T09:20:30.890Z,15.60
2022-10-15T09:22:59.855Z,15.40
2022-10-15T09:25:36.282Z,16.30
2022-10-15T09:28:11.220Z,14.60
2022-10-15T09:30:47.303Z,15.40
2022-10-15T09:33:27.687Z,14.50
2022-10-15T09:36:06.782Z,13.80
2022-10-15T09:38:42.076Z,15.00
2022-10-15T09:41:22.110Z,14.40
2022-10-15T09:43:53.201Z,13.60
2022-10-15T09:46:21.754Z,13.60
2022-10-15T09:49:03.902Z,13.60
2022-10-15T09:51:38.361Z,13.00
2022-10-15T09:54:17.908Z,15.30
2022-10-15T09:56:51.870Z,13.80
2022-10-15T09:59:22.853Z,13.40
2022-10-15T10:02:00.094Z,13.30
2022-10-15T10:04:30.337Z,13.60
2022-10-15T10:07:01.803Z,13.40
2022-10-15T10:09:33.711Z,13.20
2022-10-15T10:12:05.696Z,13.30
2022-10-15T10:14:36.261Z,14.40
2022-10-15T10:17:16.374Z,14.50
2022-10-15T10:19:46.520Z,12.00
2022-10-15T10:22:18.459Z,12.90
2022-10-15T10:24:47.850Z,13.10
2022-10-15T10:27:23.046Z,11.70
2022-10-15T10:29:57.217Z,13.70
2022-10-15T10:32:31.774Z,14.10
2022-10-15T10:35:02.658Z,12.20
2022-10-15T10:37:42.912Z,11.80
2022-10-15T10:40:25.054Z,12.40
2022-10-15T10:43:12.089Z,13.60
2022-10-15T10:45:52.234Z,13.10
2022-10-15T10:48:23.553Z,13.40
2022-10-15T10:51:03.702Z,13.60
2022-10-15T10:53:34.554Z,13.90
2022-10-15T10:56:07.680Z,14.20
2022-10-15T10:58:36.499Z,13.80
2022-10-15T11:01:05.334Z,14.00
2022-10-15T11:03:37.528Z,11.50
2022-10-15T11:06:28.885Z,13.70
2022-10-15T11:09:09.244Z,13.90
2022-10-15T11:11:49.392Z,13.60
2022-10-15T11:14:27.326Z,14.40
2022-10-15T11:17:03.858Z,14.20
2022-10-15T11:20:13.133Z,14.00
2022-10-15T11:22:48.764Z,14.20
2022-10-15T11:25:31.553Z,13.70
2022-10-15T11:28:17.121Z,14.20
2022-10-15T11:30:52.406Z,14.70
2022-10-15T11:33:33.738Z,13.30
2022-10-15T11:36:30.835Z,14.30
2022-10-15T11:39:13.916Z,13.90
2022-10-15T11:41:51.983Z,13.80
2022-10-15T11:44:33.343Z,13.60
2022-10-15T11:47:20.490Z,14.00
2022-10-15T11:49:57.507Z,13.40
2022-10-15T11:52:48.531Z,14.80
2022-10-15T11:55:23.004Z,13.90
2022-10-15T12:00:36.619Z,14.30
2022-10-15T12:03:16.611Z,14.20
2022-10-15T12:05:50.767Z,14.70
2022-10-15T12:08:20.517Z,14.00
2022-10-15T12:11:03.919Z,12.60
2022-10-15T12:13:40.919Z,13.40
2022-10-15T12:16:18.862Z,13.30
2022-10-15T12:18:55.465Z,14.00
2022-10-15T12:21:36.015Z,12.90
2022-10-15T12:24:10.141Z,13.10
2022-10-15T12:26:38.791Z,13.40
2022-10-15T12:29:21.298Z,11.90
2022-10-15T12:31:52.978Z,11.30
2022-10-15T12:34:37.433Z,11.20
2022-10-15T12:37:15.841Z,11.40
2022-10-15T12:39:52.492Z,11.60
2022-10-15T12:42:27.208Z,12.30
2022-10-15T12:44:59.041Z,11.70
2022-10-15T12:47:49.619Z,11.90
2022-10-15T12:50:23.763Z,12.00
2022-10-15T12:53:01.384Z,11.80
2022-10-15T12:55:36.198Z,10.90
2022-10-15T12:58:31.347Z,10.50
2022-10-15T13:03:39.163Z,10.70
2022-10-15T13:06:25.934Z,10.40
2022-10-15T13:09:01.018Z,10.20
2022-10-15T13:11:32.135Z,10.80
2022-10-15T13:14:13.282Z,10.20
2022-10-15T13:16:46.065Z,10.80
2022-10-15T13:19:20.309Z,10.90
2022-10-15T13:21:50.792Z,11.20
2022-10-15T13:24:22.447Z,10.90
2022-10-15T13:26:51.856Z,10.60
2022-10-15T13:29:23.255Z,10.80
2022-10-15T13:31:54.890Z,11.70
2022-10-15T13:34:29.794Z,11.20
2022-10-15T13:37:00.895Z,11.70
2022-10-15T13:42:14.003Z,11.80
2022-10-15T13:44:44.043Z,11.50
2022-10-15T13:47:27.802Z,12.40
2022-10-15T13:50:14.736Z,11.90
2022-10-15T13:52:46.272Z,13.00
2022-10-15T13:55:21.522Z,13.30
2022-10-15T13:57:56.372Z,12.40
2022-10-15T14:00:29.386Z,12.60
2022-10-15T14:03:24.997Z,11.20
2022-10-15T14:05:55.067Z,13.20
2022-10-15T14:08:27.915Z,12.20
2022-10-15T14:10:59.242Z,11.30
2022-10-15T14:13:28.956Z,13.80
2022-10-15T14:16:12.976Z,13.20
2022-10-15T14:18:48.251Z,13.40
2022-10-15T14:21:20.668Z,12.80
2022-10-15T14:23:50.453Z,14.00
2022-10-15T14:26:24.663Z,13.00
2022-10-15T14:28:55.510Z,13.00
2022-10-15T14:31:32.379Z,12.00
2022-10-15T14:34:01.662Z,12.30
2022-10-15T14:36:31.911Z,12.30
2022-10-15T14:39:34.472Z,11.90
2022-10-15T14:42:04.427Z,12.60
2022-10-15T14:44:43.508Z,11.00
2022-10-15T14:47:20.222Z,10.60
2022-10-15T14:49:51.795Z,10.10
2022-10-15T14:52:22.359Z,10.20
2022-10-15T14:55:01.465Z,10.40
2022-10-15T14:57:34.824Z,10.80
2022-10-15T15:00:12.669Z,10.00
2022-10-15T15:02:41.993Z,10.70
2022-10-15T15:05:21.859Z,9.80
2022-10-15T15:07:50.496Z,10.60
2022-10-15T15:10:19.837Z,12.10
2022-10-15T15:12:51.808Z,12.10
2022-10-15T15:15:22.717Z,12.10
2022-10-15T15:17:51.552Z,11.60
2022-10-15T15:20:21.899Z,11.30
2022-10-15T15:22:53.227Z,10.60
2022-10-15T15:25:27.390Z,10.50
2022-10-15T15:27:56.051Z,10.00
2022-10-15T15:30:26.253Z,10.40
2022-10-15T15:32:55.280Z,11.30
2022-10-15T15:35:27.711Z,12.70
2022-10-15T15:37:56.331Z,12.80
2022-10-15T15:40:25.484Z,12.30
2022-10-15T15:42:55.490Z,12.30
2022-10-15T15:45:25.949Z,11.20
2022-10-15T15:47:58.133Z,10.90
2022-10-15T15:50:27.227Z,11.30
2022-10-15T15:52:56.047Z,11.60
2022-10-15T15:55:25.521Z,12.00
2022-10-15T15:57:54.222Z,10.60
2022-10-15T16:00:24.300Z,10.30
2022-10-15T16:02:57.017Z,10.90
2022-10-15T16:05:27.436Z,11.20
2022-10-15T16:07:56.054Z,11.20
2022-10-15T16:10:26.144Z,12.70
2022-10-15T16:12:55.925Z,12.50
2022-10-15T16:15:24.786Z,12.40
2022-10-15T16:17:53.479Z,12.90
2022-10-15T16:20:23.334Z,12.10
2022-10-15T16:22:52.666Z,11.10
2022-10-15T16:25:22.525Z,10.20
2022-10-15T16:27:56.371Z,11.50
2022-10-15T16:30:24.993Z,12.50
2022-10-15T16:32:53.716Z,11.50
2022-10-15T16:35:23.121Z,12.10
2022-10-15T16:37:53.828Z,11.80
2022-10-15T16:40:23.151Z,12.20
2022-10-15T16:42:51.784Z,10.60
2022-10-15T16:45:20.845Z,11.60
2022-10-15T16:47:49.679Z,11.80
2022-10-15T16:50:19.551Z,11.10
2022-10-15T16:52:48.230Z,11.20
2022-10-15T16:55:17.194Z,11.40
2022-10-15T16:57:45.858Z,13.20
2022-10-15T17:00:15.441Z,13.90
2022-10-15T17:02:44.097Z,12.80
2022-10-15T17:05:12.726Z,12.40
2022-10-15T17:07:41.414Z,12.60
2022-10-15T17:10:14.015Z,11.90
2022-10-15T17:12:44.110Z,10.70
2022-10-15T17:15:13.109Z,11.10
2022-10-15T17:17:42.194Z,10.80
2022-10-15T17:20:12.713Z,10.50
2022-10-15T17:22:41.635Z,11.70
2022-10-15T17:25:11.038Z,10.10
2022-10-15T17:27:40.543Z,9.80
2022-10-15T17:30:11.371Z,9.20
2022-10-15T17:32:40.620Z,9.50
2022-10-15T17:35:10.128Z,8.60
2022-10-15T17:37:39.578Z,9.80
2022-10-15T17:40:11.449Z,9.00
2022-10-15T17:42:42.554Z,9.60
2022-10-15T17:45:12.540Z,8.70
2022-10-15T17:47:41.901Z,10.10
2022-10-15T17:50:14.831Z,9.50
2022-10-15T17:52:44.543Z,9.60
2022-10-15T17:55:13.482Z,9.40
2022-10-15T17:57:42.553Z,9.50
2022-10-15T18:00:14.002Z,10.10
2022-10-15T18:02:42.795Z,9.40
2022-10-15T18:05:11.589Z,8.60
2022-10-15T18:07:40.818Z,9.40
2022-10-15T18:10:12.803Z,8.70
2022-10-15T18:12:41.615Z,9.00
2022-10-15T18:15:11.939Z,9.70
2022-10-15T18:17:40.994Z,9.00
2022-10-15T18:20:11.177Z,9.40
2022-10-15T18:22:40.612Z,12.80
2022-10-15T18:25:10.928Z,12.80
2022-10-15T18:27:40.207Z,12.00
2022-10-15T18:30:11.794Z,10.30
2022-10-15T18:32:41.097Z,10.40
2022-10-15T18:35:11.766Z,10.30
2022-10-15T18:37:41.140Z,9.80
2022-10-15T18:40:12.241Z,9.60
2022-10-15T18:42:42.169Z,9.10
2022-10-15T18:45:13.055Z,9.20
2022-10-15T18:47:42.053Z,9.20
2022-10-15T18:50:12.631Z,8.90
2022-10-15T18:52:41.856Z,9.60
2022-10-15T18:55:11.809Z,9.70
2022-10-15T18:57:41.061Z,9.00
2022-10-15T19:00:12.592Z,8.80
2022-10-15T19:02:42.145Z,9.40
2022-10-15T19:05:11.556Z,9.90
2022-10-15T19:07:40.536Z,9.60
2022-10-15T19:10:10.734Z,9.60
2022-10-15T19:12:39.865Z,8.90
2022-10-15T19:15:11.074Z,9.90
2022-10-15T19:17:40.148Z,9.70
2022-10-15T19:20:10.903Z,10.00
2022-10-15T19:22:40.296Z,9.40
2022-10-15T19:25:09.965Z,9.90
2022-10-15T19:27:38.723Z,9.60
2022-10-15T19:30:09.147Z,9.30
2022-10-15T19:32:38.015Z,9.60
2022-10-15T19:35:08.709Z,9.90
2022-10-15T19:37:37.840Z,9.20
2022-10-15T19:40:10.788Z,9.30
2022-10-15T19:42:39.731Z,10.10
2022-10-15T19:45:10.810Z,9.80
2022-10-15T19:47:39.801Z,10.00
2022-10-15T19:50:09.306Z,8.50
2022-10-15T19:52:38.235Z,8.50
2022-10-15T19:55:08.992Z,9.40
2022-10-15T19:57:38.180Z,9.40
2022-10-15T20:00:09.406Z,9.30
2022-10-15T20:02:39.813Z,10.00
2022-10-15T20:05:09.992Z,9.40
2022-10-15T20:07:39.223Z,10.30
2022-10-15T20:10:09.839Z,9.80
2022-10-15T20:12:39.544Z,9.40
2022-10-15T20:15:10.414Z,9.30
2022-10-15T20:17:39.119Z,8.40
2022-10-15T20:20:08.464Z,8.00
2022-10-15T20:22:37.118Z,10.10
2022-10-15T20:25:06.414Z,9.20
2022-10-15T20:27:35.046Z,8.70
2022-10-15T20:30:05.408Z,8.70
2022-10-15T20:32:35.738Z,9.00
2022-10-15T20:35:06.613Z,8.90
2022-10-15T20:37:35.605Z,9.40
2022-10-15T20:40:05.658Z,8.60
2022-10-15T20:42:37.090Z,9.10
2022-10-15T20:45:07.766Z,9.00
2022-10-15T20:47:41.025Z,7.50
2022-10-15T20:50:16.221Z,8.50
2022-10-15T20:52:45.915Z,8.50
2022-10-15T20:55:15.234Z,8.90
2022-10-15T20:57:44.510Z,7.90
2022-10-15T21:00:16.183Z,8.30
2022-10-15T21:02:44.983Z,7.60
2022-10-15T21:05:13.862Z,7.70
2022-10-15T21:07:42.519Z,8.50
2022-10-15T21:10:11.437Z,9.10
2022-10-15T21:12:40.557Z,8.70
2022-10-15T21:15:10.878Z,8.80
2022-10-15T21:17:40.561Z,9.80
2022-10-15T21:20:12.267Z,8.90
2022-10-15T21:22:40.875Z,8.60
2022-10-15T21:25:10.007Z,7.80
2022-10-15T21:27:38.837Z,7.80
2022-10-15T21:30:09.782Z,8.90
2022-10-15T21:32:38.963Z,9.10
2022-10-15T21:35:08.789Z,9.00
2022-10-15T21:37:38.558Z,8.90
2022-10-15T21:40:11.437Z,8.10
2022-10-15T21:42:40.322Z,8.90
2022-10-15T21:45:11.467Z,8.30
2022-10-15T21:47:40.367Z,7.60
2022-10-15T21:50:10.626Z,7.80
2022-10-15T21:52:39.199Z,8.20
2022-10-15T21:55:10.444Z,7.20
2022-10-15T21:57:39.166Z,8.10
2022-10-15T22:00:15.330Z,8.50
2022-10-15T22:02:44.024Z,6.80
2022-10-15T22:05:15.893Z,6.80
2022-10-15T22:07:44.735Z,6.70
2022-10-15T22:10:14.264Z,7.20
2022-10-15T22:12:42.990Z,6.40
2022-10-15T22:15:12.265Z,7.20
2022-10-15T22:17:40.894Z,7.00
2022-10-15T22:20:10.527Z,6.80
2022-10-15T22:22:39.286Z,6.60
2022-10-15T22:25:10.356Z,6.70
2022-10-15T22:27:39.762Z,7.20
2022-10-15T22:30:10.153Z,6.30
2022-10-15T22:32:39.196Z,6.80
2022-10-15T22:35:09.080Z,7.00
2022-10-15T22:37:38.138Z,7.10
2022-10-15T22:40:07.978Z,7.70
2022-10-15T22:42:38.256Z,7.10
2022-10-15T22:45:09.015Z,6.70
2022-10-15T22:47:38.349Z,5.80
2022-10-15T22:50:08.794Z,6.50
2022-10-15T22:52:37.881Z,6.50
2022-10-15T22:55:07.647Z,6.80
2022-10-15T22:57:36.569Z,7.40
2022-10-15T23:00:06.778Z,7.10
2022-10-15T23:02:35.583Z,6.30
2022-10-15T23:05:04.479Z,6.30
2022-10-15T23:07:33.173Z,6.30
2022-10-15T23:10:02.332Z,6.80
2022-10-15T23:12:30.814Z,7.10
2022-10-15T23:14:59.808Z,7.40
2022-10-15T23:17:30.201Z,6.60
2022-10-15T23:19:58.976Z,6.90
2022-10-15T23:22:27.727Z,7.30
2022-10-15T23:24:56.502Z,6.70
2022-10-15T23:27:25.335Z,6.60
2022-10-15T23:30:07.336Z,7.20
2022-10-15T23:32:43.493Z,6.80
2022-10-15T23:35:13.068Z,7.40
2022-10-15T23:37:42.321Z,6.70
2022-10-15T23:40:12.341Z,7.70
2022-10-15T23:42:40.989Z,6.90
2022-10-15T23:45:10.759Z,6.20
2022-10-15T23:47:39.497Z,6.70
2022-10-15T23:50:09.411Z,7.60
2022-10-15T23:52:37.984Z,7.00
2022-10-15T23:55:07.549Z,7.60
2022-10-15T23:57:36.676Z,7.30
